»·PEaware :: N5GL KGCN-A20

N5GL :: KGCN-A20

FLIGHT INFORMATION

Flight Status: Arrived
Operator: Privately registered:
United States
More flights under this callsign
Pilot: Georg L. (13308)
Aircraft: SOCATA TBM-900
(TBM9)
More flights by this aircraft type
Origin: KGCN Grand Canyon Natl Park
United States
Destination: A20 Sun Valley
United States
More flights between these airports :: More routes between these airports
Route: PARKS4 PGS PRFUM
File this flight plan on PilotEdge
Remarks:
Altitude:
(Current/Filed)
20,000ft
Speed:
(Current/Filed)
299kts
Departed: 17-Apr-20 08:45 AM
Arrived: 17-Apr-20 09:18 AM
Distance/Time
Traveled:
131nm/0:33
Distance/Time
To Go:
Arrived

Flight Plot

Page will automatically refresh every two minutes.

Flight plan parsing failed; only flown route is shown


Map Options




Map Legend


Flown Route
Filed Route
Departure Airport
Arrival Airport
Navaid (VOR, NDB)
Fix

Horizontal Profiles

Position Reports

Time Latitude Longitude Heading Altitude Ground
Speed
17-Apr-20 08:26 35.959797 -112.136353 42 6616ft 0kts
17-Apr-20 08:27 35.959797 -112.136353 42 6616ft 0kts
17-Apr-20 08:28 35.959797 -112.136353 42 6616ft 0kts
17-Apr-20 08:29 35.959797 -112.136353 42 6616ft 0kts
17-Apr-20 08:30 35.959797 -112.136353 42 6616ft 0kts
17-Apr-20 08:31 35.959797 -112.136353 42 6616ft 0kts
17-Apr-20 08:32 35.959797 -112.136353 42 6616ft 0kts
17-Apr-20 08:33 35.959797 -112.136353 42 6616ft 0kts
17-Apr-20 08:34 35.959797 -112.136353 42 6616ft 0kts
17-Apr-20 08:35 35.959797 -112.136353 42 6616ft 0kts
17-Apr-20 08:36 35.959797 -112.136353 42 6616ft 0kts
17-Apr-20 08:37 35.959797 -112.136353 42 6616ft 0kts
17-Apr-20 08:38 35.959797 -112.136353 42 6616ft 0kts
17-Apr-20 08:39 35.959797 -112.136353 42 6616ft 0kts
17-Apr-20 08:40 35.959797 -112.136353 42 6616ft 0kts
17-Apr-20 08:41 35.959817 -112.136330 42 6616ft 1kts
17-Apr-20 08:42 35.960974 -112.136270 343 6612ft 13kts
17-Apr-20 08:43 35.961136 -112.136418 314 6611ft 0kts
17-Apr-20 08:44 35.960520 -112.138378 221 6610ft 52kts
17-Apr-20 08:45 35.934358 -112.166708 216 7666ft 154kts
17-Apr-20 08:46 35.922639 -112.210886 281 9930ft 156kts
17-Apr-20 08:47 35.931662 -112.276291 251 10868ft 206kts
17-Apr-20 08:48 35.915138 -112.343132 251 12530ft 205kts
17-Apr-20 08:49 35.898419 -112.411034 251 14092ft 209kts
17-Apr-20 08:50 35.882028 -112.479649 251 15626ft 211kts
17-Apr-20 08:51 35.865494 -112.549462 251 17204ft 213kts
17-Apr-20 08:52 35.848762 -112.619918 251 18711ft 216kts
17-Apr-20 08:53 35.831836 -112.690978 250 20125ft 221kts
17-Apr-20 08:54 35.812601 -112.771431 250 20157ft 260kts
17-Apr-20 08:55 35.791508 -112.859522 250 20150ft 273kts
17-Apr-20 08:56 35.771688 -112.941919 249 20148ft 280kts
17-Apr-20 08:57 35.749282 -113.034707 249 20147ft 285kts
17-Apr-20 08:58 35.726335 -113.129335 249 20110ft 289kts
17-Apr-20 08:59 35.703187 -113.224513 249 20063ft 290kts
17-Apr-20 09:00 35.679898 -113.319890 249 20028ft 290kts
17-Apr-20 09:02 35.656645 -113.414762 249 20028ft 289kts
17-Apr-20 09:03 35.632705 -113.511968 249 18990ft 307kts
17-Apr-20 09:04 35.604604 -113.612777 247 17608ft 315kts
17-Apr-20 09:05 35.574734 -113.714022 246 16211ft 316kts
17-Apr-20 09:06 35.545018 -113.814393 247 14827ft 311kts
17-Apr-20 09:07 35.515579 -113.913466 247 13463ft 306kts
17-Apr-20 09:08 35.465827 -113.994400 223 12119ft 299kts
17-Apr-20 09:09 35.407815 -114.066779 223 10801ft 296kts
17-Apr-20 09:10 35.351473 -114.137029 224 9461ft 279kts
17-Apr-20 09:11 35.297491 -114.204203 224 7954ft 277kts
17-Apr-20 09:12 35.243317 -114.271470 224 6447ft 276kts
17-Apr-20 09:13 35.193068 -114.333739 225 6024ft 253kts
17-Apr-20 09:14 35.144189 -114.394271 225 5722ft 262kts
17-Apr-20 09:15 35.089976 -114.461174 224 4251ft 270kts
17-Apr-20 09:16 35.039003 -114.511673 197 2663ft 219kts
17-Apr-20 09:17 35.026244 -114.558891 234 1736ft 114kts
17-Apr-20 09:18 35.001153 -114.565045 181 696ft 21kts
17-Apr-20 09:19 35.003088 -114.564488 0 698ft 18kts
17-Apr-20 09:19 35.007718 -114.564504 0 709ft 23kts
17-Apr-20 09:21 35.010691 -114.565449 8 722ft 0kts
17-Apr-20 09:22 35.021332 -114.578645 8 687ft 0kts
17-Apr-20 09:22 35.957388 -112.139411 42 6604ft 0kts
17-Apr-20 09:23 35.007430 -114.564157 266 709ft 0kts
17-Apr-20 09:25 35.007430 -114.564157 266 709ft 0kts
17-Apr-20 09:25 35.007430 -114.564157 266 709ft 0kts
17-Apr-20 09:26 35.007430 -114.564157 266 709ft 0kts
17-Apr-20 09:28 35.007430 -114.564157 266 709ft 0kts
17-Apr-20 09:28 35.007430 -114.564157 266 709ft 0kts
17-Apr-20 09:29 35.007430 -114.564157 266 709ft 0kts
17-Apr-20 09:30 35.007430 -114.564157 266 709ft 0kts
17-Apr-20 09:31 35.007430 -114.564157 266 709ft 0kts

Navigation Log

Ident Type
Flight plan parsing failed, navigation log unavailable